sensor_id;sensor_type;location;lat;lon;timestamp;temperature;humidity
4223;DHT22;2125;51.436;14.138;2022-10-16T00:01:39;15.00;82.40
4223;DHT22;2125;51.436;14.138;2022-10-16T00:04:05;15.00;82.60
4223;DHT22;2125;51.436;14.138;2022-10-16T00:06:32;15.00;82.60
4223;DHT22;2125;51.436;14.138;2022-10-16T00:08:59;15.00;82.70
4223;DHT22;2125;51.436;14.138;2022-10-16T00:11:28;15.00;82.80
4223;DHT22;2125;51.436;14.138;2022-10-16T00:13:56;14.90;82.90
4223;DHT22;2125;51.436;14.138;2022-10-16T00:16:23;14.90;82.90
4223;DHT22;2125;51.436;14.138;2022-10-16T00:18:51;14.90;82.90
4223;DHT22;2125;51.436;14.138;2022-10-16T00:21:20;14.90;82.90
4223;DHT22;2125;51.436;14.138;2022-10-16T00:23:46;14.80;82.90
4223;DHT22;2125;51.436;14.138;2022-10-16T00:26:17;14.80;82.90
4223;DHT22;2125;51.436;14.138;2022-10-16T00:28:45;14.80;82.70
4223;DHT22;2125;51.436;14.138;2022-10-16T00:31:12;14.90;82.70
4223;DHT22;2125;51.436;14.138;2022-10-16T00:33:40;14.90;82.70
4223;DHT22;2125;51.436;14.138;2022-10-16T00:36:11;14.90;82.70
4223;DHT22;2125;51.436;14.138;2022-10-16T00:38:37;14.90;82.70
4223;DHT22;2125;51.436;14.138;2022-10-16T00:41:05;14.80;82.70
4223;DHT22;2125;51.436;14.138;2022-10-16T00:43:41;14.80;82.80
4223;DHT22;2125;51.436;14.138;2022-10-16T00:46:15;14.80;82.70
4223;DHT22;2125;51.436;14.138;2022-10-16T00:48:47;14.70;82.70
4223;DHT22;2125;51.436;14.138;2022-10-16T00:51:18;14.70;82.70
4223;DHT22;2125;51.436;14.138;2022-10-16T00:53:45;14.60;82.60
4223;DHT22;2125;51.436;14.138;2022-10-16T00:56:12;14.60;82.50
4223;DHT22;2125;51.436;14.138;2022-10-16T00:58:39;14.60;82.50
4223;DHT22;2125;51.436;14.138;2022-10-16T01:01:06;14.60;82.50
4223;DHT22;2125;51.436;14.138;2022-10-16T01:03:35;14.60;82.40
4223;DHT22;2125;51.436;14.138;2022-10-16T01:06:11;14.50;82.40
4223;DHT22;2125;51.436;14.138;2022-10-16T01:08:49;14.50;82.50
4223;DHT22;2125;51.436;14.138;2022-10-16T01:11:22;14.40;82.50
4223;DHT22;2125;51.436;14.138;2022-10-16T01:13:55;14.40;82.50
4223;DHT22;2125;51.436;14.138;2022-10-16T01:16:30;14.30;82.50
4223;DHT22;2125;51.436;14.138;2022-10-16T01:19:05;14.40;82.30
4223;DHT22;2125;51.436;14.138;2022-10-16T01:21:37;14.30;82.30
4223;DHT22;2125;51.436;14.138;2022-10-16T01:24:13;14.30;82.20
4223;DHT22;2125;51.436;14.138;2022-10-16T01:29:21;14.40;82.00
4223;DHT22;2125;51.436;14.138;2022-10-16T01:31:54;14.40;82.00
4223;DHT22;2125;51.436;14.138;2022-10-16T01:34:26;14.40;82.00
4223;DHT22;2125;51.436;14.138;2022-10-16T01:36:57;14.30;82.00
4223;DHT22;2125;51.436;14.138;2022-10-16T01:39:30;14.40;81.90
4223;DHT22;2125;51.436;14.138;2022-10-16T01:42:03;14.40;81.90
4223;DHT22;2125;51.436;14.138;2022-10-16T01:44:33;14.40;81.90
4223;DHT22;2125;51.436;14.138;2022-10-16T01:47:02;14.50;81.90
4223;DHT22;2125;51.436;14.138;2022-10-16T01:49:32;14.50;81.70
4223;DHT22;2125;51.436;14.138;2022-10-16T01:52:02;14.60;81.70
4223;DHT22;2125;51.436;14.138;2022-10-16T01:54:32;14.60;81.70
4223;DHT22;2125;51.436;14.138;2022-10-16T01:57:02;14.80;81.60
4223;DHT22;2125;51.436;14.138;2022-10-16T01:59:35;14.90;81.70
4223;DHT22;2125;51.436;14.138;2022-10-16T02:02:06;14.90;81.80
4223;DHT22;2125;51.436;14.138;2022-10-16T02:04:37;15.00;81.80
4223;DHT22;2125;51.436;14.138;2022-10-16T02:07:05;15.20;82.00
4223;DHT22;2125;51.436;14.138;2022-10-16T02:09:33;15.20;82.10
4223;DHT22;2125;51.436;14.138;2022-10-16T02:12:05;15.30;82.30
4223;DHT22;2125;51.436;14.138;2022-10-16T02:14:38;15.30;82.50
4223;DHT22;2125;51.436;14.138;2022-10-16T02:17:10;15.40;82.60
4223;DHT22;2125;51.436;14.138;2022-10-16T02:19:37;15.40;82.70
4223;DHT22;2125;51.436;14.138;2022-10-16T02:22:06;15.40;82.90
4223;DHT22;2125;51.436;14.138;2022-10-16T02:24:39;15.40;82.90
4223;DHT22;2125;51.436;14.138;2022-10-16T02:27:11;15.50;83.00
4223;DHT22;2125;51.436;14.138;2022-10-16T02:29:43;15.50;83.10
4223;DHT22;2125;51.436;14.138;2022-10-16T02:32:17;15.50;83.20
4223;DHT22;2125;51.436;14.138;2022-10-16T02:34:47;15.50;83.20
4223;DHT22;2125;51.436;14.138;2022-10-16T02:37:15;15.50;83.20
4223;DHT22;2125;51.436;14.138;2022-10-16T02:39:42;15.60;83.30
4223;DHT22;2125;51.436;14.138;2022-10-16T02:42:10;15.60;83.40
4223;DHT22;2125;51.436;14.138;2022-10-16T02:44:38;15.60;83.40
4223;DHT22;2125;51.436;14.138;2022-10-16T02:47:06;15.60;83.50
4223;DHT22;2125;51.436;14.138;2022-10-16T02:49:32;15.60;83.50
4223;DHT22;2125;51.436;14.138;2022-10-16T02:51:59;15.60;83.50
4223;DHT22;2125;51.436;14.138;2022-10-16T02:54:26;15.60;83.50
4223;DHT22;2125;51.436;14.138;2022-10-16T02:56:52;15.60;83.60
4223;DHT22;2125;51.436;14.138;2022-10-16T02:59:19;15.50;83.50
4223;DHT22;2125;51.436;14.138;2022-10-16T03:01:45;15.60;83.50
4223;DHT22;2125;51.436;14.138;2022-10-16T03:04:13;15.60;83.60
4223;DHT22;2125;51.436;14.138;2022-10-16T03:06:40;15.50;83.60
4223;DHT22;2125;51.436;14.138;2022-10-16T03:09:07;15.50;83.60
4223;DHT22;2125;51.436;14.138;2022-10-16T03:11:33;15.50;83.50
4223;DHT22;2125;51.436;14.138;2022-10-16T03:14:00;15.60;83.50
4223;DHT22;2125;51.436;14.138;2022-10-16T03:16:27;15.60;83.60
4223;DHT22;2125;51.436;14.138;2022-10-16T03:18:53;15.60;83.60
4223;DHT22;2125;51.436;14.138;2022-10-16T03:21:21;15.60;83.60
4223;DHT22;2125;51.436;14.138;2022-10-16T03:23:48;15.70;83.60
4223;DHT22;2125;51.436;14.138;2022-10-16T03:26:14;15.60;83.70
4223;DHT22;2125;51.436;14.138;2022-10-16T03:28:41;15.60;83.70
4223;DHT22;2125;51.436;14.138;2022-10-16T03:31:07;15.70;83.60
4223;DHT22;2125;51.436;14.138;2022-10-16T03:33:34;15.70;83.70
4223;DHT22;2125;51.436;14.138;2022-10-16T03:36:01;15.70;83.70
4223;DHT22;2125;51.436;14.138;2022-10-16T03:38:28;15.70;83.90
4223;DHT22;2125;51.436;14.138;2022-10-16T03:40:55;15.70;83.90
4223;DHT22;2125;51.436;14.138;2022-10-16T03:43:22;15.70;83.90
4223;DHT22;2125;51.436;14.138;2022-10-16T03:45:50;15.70;83.90
4223;DHT22;2125;51.436;14.138;2022-10-16T03:48:16;15.60;84.00
4223;DHT22;2125;51.436;14.138;2022-10-16T03:50:43;15.60;84.00
4223;DHT22;2125;51.436;14.138;2022-10-16T03:53:10;15.50;83.90
4223;DHT22;2125;51.436;14.138;2022-10-16T03:55:38;15.50;83.90
4223;DHT22;2125;51.436;14.138;2022-10-16T03:58:04;15.50;84.00
4223;DHT22;2125;51.436;14.138;2022-10-16T04:00:32;15.40;83.90
4223;DHT22;2125;51.436;14.138;2022-10-16T04:02:59;15.30;83.90
4223;DHT22;2125;51.436;14.138;2022-10-16T04:05:26;15.20;83.80
4223;DHT22;2125;51.436;14.138;2022-10-16T04:07:52;15.10;83.90
4223;DHT22;2125;51.436;14.138;2022-10-16T04:10:20;15.00;83.70
4223;DHT22;2125;51.436;14.138;2022-10-16T04:12:48;15.00;83.60
4223;DHT22;2125;51.436;14.138;2022-10-16T04:15:14;14.90;83.50
4223;DHT22;2125;51.436;14.138;2022-10-16T04:17:41;15.00;83.30
4223;DHT22;2125;51.436;14.138;2022-10-16T04:20:08;15.00;83.20
4223;DHT22;2125;51.436;14.138;2022-10-16T04:22:35;15.00;83.10
4223;DHT22;2125;51.436;14.138;2022-10-16T04:25:02;15.10;83.00
4223;DHT22;2125;51.436;14.138;2022-10-16T04:27:28;15.20;82.90
4223;DHT22;2125;51.436;14.138;2022-10-16T04:29:58;15.30;83.00
4223;DHT22;2125;51.436;14.138;2022-10-16T04:32:26;15.30;83.10
4223;DHT22;2125;51.436;14.138;2022-10-16T04:34:53;15.40;83.20
4223;DHT22;2125;51.436;14.138;2022-10-16T04:37:23;15.40;83.30
4223;DHT22;2125;51.436;14.138;2022-10-16T04:39:50;15.40;83.30
4223;DHT22;2125;51.436;14.138;2022-10-16T04:42:16;15.40;83.40
4223;DHT22;2125;51.436;14.138;2022-10-16T04:44:43;15.50;83.50
4223;DHT22;2125;51.436;14.138;2022-10-16T04:47:11;15.50;83.60
4223;DHT22;2125;51.436;14.138;2022-10-16T04:49:38;15.50;83.70
4223;DHT22;2125;51.436;14.138;2022-10-16T04:52:04;15.50;83.70
4223;DHT22;2125;51.436;14.138;2022-10-16T04:54:31;15.50;83.80
4223;DHT22;2125;51.436;14.138;2022-10-16T04:56:57;15.50;83.90
4223;DHT22;2125;51.436;14.138;2022-10-16T04:59:24;15.50;83.90
4223;DHT22;2125;51.436;14.138;2022-10-16T05:01:51;15.50;83.90
4223;DHT22;2125;51.436;14.138;2022-10-16T05:04:19;15.50;83.80
4223;DHT22;2125;51.436;14.138;2022-10-16T05:06:45;15.50;83.90
4223;DHT22;2125;51.436;14.138;2022-10-16T05:09:13;15.60;83.90
4223;DHT22;2125;51.436;14.138;2022-10-16T05:11:39;15.60;83.90
4223;DHT22;2125;51.436;14.138;2022-10-16T05:14:06;15.60;83.90
4223;DHT22;2125;51.436;14.138;2022-10-16T05:16:33;15.70;83.90
4223;DHT22;2125;51.436;14.138;2022-10-16T05:18:59;15.70;83.90
4223;DHT22;2125;51.436;14.138;2022-10-16T05:21:27;15.70;84.10
4223;DHT22;2125;51.436;14.138;2022-10-16T05:23:54;15.80;84.10
4223;DHT22;2125;51.436;14.138;2022-10-16T05:26:21;15.70;84.20
4223;DHT22;2125;51.436;14.138;2022-10-16T05:28:47;15.70;84.20
4223;DHT22;2125;51.436;14.138;2022-10-16T05:31:16;15.60;84.20
4223;DHT22;2125;51.436;14.138;2022-10-16T05:33:44;15.60;84.20
4223;DHT22;2125;51.436;14.138;2022-10-16T05:36:10;15.50;84.20
4223;DHT22;2125;51.436;14.138;2022-10-16T05:38:39;15.50;84.10
4223;DHT22;2125;51.436;14.138;2022-10-16T05:41:06;15.50;84.00
4223;DHT22;2125;51.436;14.138;2022-10-16T05:43:33;15.50;84.00
4223;DHT22;2125;51.436;14.138;2022-10-16T05:46:02;15.50;84.00
4223;DHT22;2125;51.436;14.138;2022-10-16T05:48:29;15.40;84.00
4223;DHT22;2125;51.436;14.138;2022-10-16T05:50:58;15.50;83.90
4223;DHT22;2125;51.436;14.138;2022-10-16T05:53:25;15.50;84.00
4223;DHT22;2125;51.436;14.138;2022-10-16T05:55:53;15.50;84.00
4223;DHT22;2125;51.436;14.138;2022-10-16T05:58:21;15.50;83.90
4223;DHT22;2125;51.436;14.138;2022-10-16T06:00:53;15.50;83.90
4223;DHT22;2125;51.436;14.138;2022-10-16T06:03:20;15.60;83.90
4223;DHT22;2125;51.436;14.138;2022-10-16T06:05:47;15.60;83.90
4223;DHT22;2125;51.436;14.138;2022-10-16T06:08:13;15.60;83.90
4223;DHT22;2125;51.436;14.138;2022-10-16T06:10:41;15.60;84.00
4223;DHT22;2125;51.436;14.138;2022-10-16T06:13:10;15.70;83.90
4223;DHT22;2125;51.436;14.138;2022-10-16T06:15:37;15.70;83.90
4223;DHT22;2125;51.436;14.138;2022-10-16T06:18:07;15.70;83.90
4223;DHT22;2125;51.436;14.138;2022-10-16T06:20:34;15.70;84.10
4223;DHT22;2125;51.436;14.138;2022-10-16T06:23:00;15.80;83.90
4223;DHT22;2125;51.436;14.138;2022-10-16T06:25:27;15.90;83.90
4223;DHT22;2125;51.436;14.138;2022-10-16T06:27:54;16.00;84.00
4223;DHT22;2125;51.436;14.138;2022-10-16T06:30:22;16.00;84.10
4223;DHT22;2125;51.436;14.138;2022-10-16T06:32:48;16.00;84.20
4223;DHT22;2125;51.436;14.138;2022-10-16T06:35:15;16.00;84.20
4223;DHT22;2125;51.436;14.138;2022-10-16T06:37:42;16.00;84.20
4223;DHT22;2125;51.436;14.138;2022-10-16T06:40:09;15.90;84.30
4223;DHT22;2125;51.436;14.138;2022-10-16T06:42:36;15.90;84.20
4223;DHT22;2125;51.436;14.138;2022-10-16T06:45:03;15.90;84.30
4223;DHT22;2125;51.436;14.138;2022-10-16T06:47:31;15.90;84.20
4223;DHT22;2125;51.436;14.138;2022-10-16T06:49:57;15.90;84.20
4223;DHT22;2125;51.436;14.138;2022-10-16T06:52:24;15.90;84.10
4223;DHT22;2125;51.436;14.138;2022-10-16T06:54:51;16.10;84.00
4223;DHT22;2125;51.436;14.138;2022-10-16T06:57:17;16.20;84.10
4223;DHT22;2125;51.436;14.138;2022-10-16T06:59:44;16.30;84.20
4223;DHT22;2125;51.436;14.138;2022-10-16T07:02:10;16.40;84.10
4223;DHT22;2125;51.436;14.138;2022-10-16T07:04:38;16.60;84.20
4223;DHT22;2125;51.436;14.138;2022-10-16T07:07:05;16.70;84.30
4223;DHT22;2125;51.436;14.138;2022-10-16T07:09:32;16.90;84.30
4223;DHT22;2125;51.436;14.138;2022-10-16T07:11:58;16.90;84.40
4223;DHT22;2125;51.436;14.138;2022-10-16T07:14:25;16.90;84.40
4223;DHT22;2125;51.436;14.138;2022-10-16T07:16:51;16.90;84.40
4223;DHT22;2125;51.436;14.138;2022-10-16T07:19:18;16.90;84.40
4223;DHT22;2125;51.436;14.138;2022-10-16T07:21:46;16.90;84.40
4223;DHT22;2125;51.436;14.138;2022-10-16T07:24:14;16.90;84.40
4223;DHT22;2125;51.436;14.138;2022-10-16T07:26:42;16.90;84.40
4223;DHT22;2125;51.436;14.138;2022-10-16T07:29:13;16.90;84.50
4223;DHT22;2125;51.436;14.138;2022-10-16T07:31:40;16.90;84.50
4223;DHT22;2125;51.436;14.138;2022-10-16T07:34:07;16.90;84.50
4223;DHT22;2125;51.436;14.138;2022-10-16T07:36:33;16.90;84.50
4223;DHT22;2125;51.436;14.138;2022-10-16T07:39:02;17.00;84.50
4223;DHT22;2125;51.436;14.138;2022-10-16T07:41:29;17.10;84.40
4223;DHT22;2125;51.436;14.138;2022-10-16T07:43:58;17.10;84.40
4223;DHT22;2125;51.436;14.138;2022-10-16T07:46:25;17.30;84.30
4223;DHT22;2125;51.436;14.138;2022-10-16T07:48:52;17.30;84.30
4223;DHT22;2125;51.436;14.138;2022-10-16T07:51:20;17.40;84.30
4223;DHT22;2125;51.436;14.138;2022-10-16T07:53:47;17.50;84.10
4223;DHT22;2125;51.436;14.138;2022-10-16T07:56:16;17.50;84.20
4223;DHT22;2125;51.436;14.138;2022-10-16T07:58:43;17.50;84.10
4223;DHT22;2125;51.436;14.138;2022-10-16T08:01:11;17.40;84.20
4223;DHT22;2125;51.436;14.138;2022-10-16T08:03:40;17.40;84.20
4223;DHT22;2125;51.436;14.138;2022-10-16T08:06:08;17.40;84.30
4223;DHT22;2125;51.436;14.138;2022-10-16T08:08:35;17.40;84.30
4223;DHT22;2125;51.436;14.138;2022-10-16T08:11:02;17.40;84.40
4223;DHT22;2125;51.436;14.138;2022-10-16T08:13:32;17.50;84.20
4223;DHT22;2125;51.436;14.138;2022-10-16T08:15:58;17.50;84.10
4223;DHT22;2125;51.436;14.138;2022-10-16T08:18:25;17.50;84.10
4223;DHT22;2125;51.436;14.138;2022-10-16T08:20:55;17.60;84.10
4223;DHT22;2125;51.436;14.138;2022-10-16T08:23:24;17.80;84.00
4223;DHT22;2125;51.436;14.138;2022-10-16T08:25:51;18.00;84.10
4223;DHT22;2125;51.436;14.138;2022-10-16T08:28:23;18.00;83.50
4223;DHT22;2125;51.436;14.138;2022-10-16T08:30:53;18.00;83.70
4223;DHT22;2125;51.436;14.138;2022-10-16T08:33:21;18.10;83.70
4223;DHT22;2125;51.436;14.138;2022-10-16T08:35:52;18.20;83.80
4223;DHT22;2125;51.436;14.138;2022-10-16T08:38:20;18.20;83.30
4223;DHT22;2125;51.436;14.138;2022-10-16T08:40:47;18.10;83.40
4223;DHT22;2125;51.436;14.138;2022-10-16T08:43:35;18.20;83.70
4223;DHT22;2125;51.436;14.138;2022-10-16T08:46:19;18.20;83.60
4223;DHT22;2125;51.436;14.138;2022-10-16T08:48:50;18.20;83.70
4223;DHT22;2125;51.436;14.138;2022-10-16T08:51:22;18.20;83.70
4223;DHT22;2125;51.436;14.138;2022-10-16T08:53:52;18.10;83.50
4223;DHT22;2125;51.436;14.138;2022-10-16T08:56:20;18.10;83.90
4223;DHT22;2125;51.436;14.138;2022-10-16T08:58:48;18.30;83.80
4223;DHT22;2125;51.436;14.138;2022-10-16T09:01:17;18.30;83.60
4223;DHT22;2125;51.436;14.138;2022-10-16T09:04:03;18.50;83.10
4223;DHT22;2125;51.436;14.138;2022-10-16T09:06:38;18.50;83.10
4223;DHT22;2125;51.436;14.138;2022-10-16T09:09:30;18.60;82.90
4223;DHT22;2125;51.436;14.138;2022-10-16T09:12:05;18.70;83.10
4223;DHT22;2125;51.436;14.138;2022-10-16T09:14:50;18.70;83.20
4223;DHT22;2125;51.436;14.138;2022-10-16T09:17:36;19.00;83.70
4223;DHT22;2125;51.436;14.138;2022-10-16T09:20:18;19.50;82.80
4223;DHT22;2125;51.436;14.138;2022-10-16T09:22:45;19.80;82.00
4223;DHT22;2125;51.436;14.138;2022-10-16T09:25:21;19.90;80.70
4223;DHT22;2125;51.436;14.138;2022-10-16T09:27:49;19.90;81.40
4223;DHT22;2125;51.436;14.138;2022-10-16T09:30:20;19.90;81.10
4223;DHT22;2125;51.436;14.138;2022-10-16T09:32:54;19.90;81.10
4223;DHT22;2125;51.436;14.138;2022-10-16T09:35:43;19.90;80.90
4223;DHT22;2125;51.436;14.138;2022-10-16T09:38:29;19.90;81.00
4223;DHT22;2125;51.436;14.138;2022-10-16T09:41:22;19.80;81.30
4223;DHT22;2125;51.436;14.138;2022-10-16T09:51:04;19.80;81.60
4223;DHT22;2125;51.436;14.138;2022-10-16T10:00:18;20.10;81.70
4223;DHT22;2125;51.436;14.138;2022-10-16T10:10:01;20.10;80.80
4223;DHT22;2125;51.436;14.138;2022-10-16T10:12:30;19.80;81.20
4223;DHT22;2125;51.436;14.138;2022-10-16T10:14:58;19.60;81.90
4223;DHT22;2125;51.436;14.138;2022-10-16T10:17:46;19.50;82.40
4223;DHT22;2125;51.436;14.138;2022-10-16T10:20:22;19.30;82.30
4223;DHT22;2125;51.436;14.138;2022-10-16T10:22:50;19.20;82.70
4223;DHT22;2125;51.436;14.138;2022-10-16T10:25:39;19.20;82.60
4223;DHT22;2125;51.436;14.138;2022-10-16T10:28:29;19.20;82.70
4223;DHT22;2125;51.436;14.138;2022-10-16T10:31:03;19.20;82.80
4223;DHT22;2125;51.436;14.138;2022-10-16T10:33:41;19.20;82.80
4223;DHT22;2125;51.436;14.138;2022-10-16T10:36:20;19.20;83.00
4223;DHT22;2125;51.436;14.138;2022-10-16T10:39:13;19.20;82.90
4223;DHT22;2125;51.436;14.138;2022-10-16T10:42:06;19.30;82.80
4223;DHT22;2125;51.436;14.138;2022-10-16T10:45:01;19.40;83.10
4223;DHT22;2125;51.436;14.138;2022-10-16T10:47:57;19.60;82.90
4223;DHT22;2125;51.436;14.138;2022-10-16T10:50:34;19.80;82.60
4223;DHT22;2125;51.436;14.138;2022-10-16T10:53:09;20.00;82.20
4223;DHT22;2125;51.436;14.138;2022-10-16T10:55:42;20.20;81.70
4223;DHT22;2125;51.436;14.138;2022-10-16T10:58:38;20.20;81.50
4223;DHT22;2125;51.436;14.138;2022-10-16T11:01:09;20.20;81.50
4223;DHT22;2125;51.436;14.138;2022-10-16T11:03:50;20.20;81.80
4223;DHT22;2125;51.436;14.138;2022-10-16T11:06:21;20.40;81.50
4223;DHT22;2125;51.436;14.138;2022-10-16T11:08:52;20.70;81.40
4223;DHT22;2125;51.436;14.138;2022-10-16T11:11:24;20.80;80.90
4223;DHT22;2125;51.436;14.138;2022-10-16T11:13:56;20.70;80.20
4223;DHT22;2125;51.436;14.138;2022-10-16T11:16:30;20.60;81.40
4223;DHT22;2125;51.436;14.138;2022-10-16T11:19:02;20.70;82.00
4223;DHT22;2125;51.436;14.138;2022-10-16T11:21:36;20.80;79.90
4223;DHT22;2125;51.436;14.138;2022-10-16T11:24:14;20.70;80.50
4223;DHT22;2125;51.436;14.138;2022-10-16T11:26:46;20.70;81.00
4223;DHT22;2125;51.436;14.138;2022-10-16T11:29:20;20.70;80.90
4223;DHT22;2125;51.436;14.138;2022-10-16T11:31:51;20.70;81.40
4223;DHT22;2125;51.436;14.138;2022-10-16T11:34:22;20.70;81.00
4223;DHT22;2125;51.436;14.138;2022-10-16T11:36:55;20.70;80.80
4223;DHT22;2125;51.436;14.138;2022-10-16T11:39:25;20.80;80.60
4223;DHT22;2125;51.436;14.138;2022-10-16T11:41:54;20.70;80.70
4223;DHT22;2125;51.436;14.138;2022-10-16T11:44:48;21.00;81.30
4223;DHT22;2125;51.436;14.138;2022-10-16T11:47:26;21.20;80.80
4223;DHT22;2125;51.436;14.138;2022-10-16T11:49:59;21.40;80.00
4223;DHT22;2125;51.436;14.138;2022-10-16T11:52:33;21.40;79.70
4223;DHT22;2125;51.436;14.138;2022-10-16T11:55:04;21.40;79.40
4223;DHT22;2125;51.436;14.138;2022-10-16T11:57:34;21.50;79.90
4223;DHT22;2125;51.436;14.138;2022-10-16T12:00:08;21.50;79.70
4223;DHT22;2125;51.436;14.138;2022-10-16T12:02:51;21.40;79.20
4223;DHT22;2125;51.436;14.138;2022-10-16T12:05:25;21.40;78.60
4223;DHT22;2125;51.436;14.138;2022-10-16T12:08:04;21.40;79.20
4223;DHT22;2125;51.436;14.138;2022-10-16T12:10:33;21.40;78.40
4223;DHT22;2125;51.436;14.138;2022-10-16T12:13:03;21.20;79.00
4223;DHT22;2125;51.436;14.138;2022-10-16T12:15:33;21.00;79.10
4223;DHT22;2125;51.436;14.138;2022-10-16T12:18:00;20.80;79.20
4223;DHT22;2125;51.436;14.138;2022-10-16T12:20:28;20.70;80.10
4223;DHT22;2125;51.436;14.138;2022-10-16T12:22:59;20.60;80.20
4223;DHT22;2125;51.436;14.138;2022-10-16T12:25:28;20.70;80.60
4223;DHT22;2125;51.436;14.138;2022-10-16T12:27:58;20.80;80.60
4223;DHT22;2125;51.436;14.138;2022-10-16T12:30:28;20.90;80.20
4223;DHT22;2125;51.436;14.138;2022-10-16T12:32:58;21.00;80.20
4223;DHT22;2125;51.436;14.138;2022-10-16T12:35:27;21.10;80.10
4223;DHT22;2125;51.436;14.138;2022-10-16T12:38:03;21.20;80.20
4223;DHT22;2125;51.436;14.138;2022-10-16T12:40:33;21.30;79.40
4223;DHT22;2125;51.436;14.138;2022-10-16T12:43:11;21.30;78.80
4223;DHT22;2125;51.436;14.138;2022-10-16T12:45:39;21.40;79.80
4223;DHT22;2125;51.436;14.138;2022-10-16T12:48:20;21.50;79.60
4223;DHT22;2125;51.436;14.138;2022-10-16T12:50:48;21.60;78.90
4223;DHT22;2125;51.436;14.138;2022-10-16T12:53:19;21.40;78.20
4223;DHT22;2125;51.436;14.138;2022-10-16T12:55:55;21.20;78.60
4223;DHT22;2125;51.436;14.138;2022-10-16T12:58:35;21.10;79.30
4223;DHT22;2125;51.436;14.138;2022-10-16T13:01:10;20.90;79.90
4223;DHT22;2125;51.436;14.138;2022-10-16T13:04:04;20.80;80.10
4223;DHT22;2125;51.436;14.138;2022-10-16T13:06:42;20.80;80.70
4223;DHT22;2125;51.436;14.138;2022-10-16T13:09:42;20.80;80.60
4223;DHT22;2125;51.436;14.138;2022-10-16T13:12:31;20.80;80.10
4223;DHT22;2125;51.436;14.138;2022-10-16T13:15:18;20.80;79.90
4223;DHT22;2125;51.436;14.138;2022-10-16T13:17:54;20.80;80.40
4223;DHT22;2125;51.436;14.138;2022-10-16T13:20:41;20.80;80.40
4223;DHT22;2125;51.436;14.138;2022-10-16T13:23:22;20.80;81.00
4223;DHT22;2125;51.436;14.138;2022-10-16T13:26:09;20.70;80.80
4223;DHT22;2125;51.436;14.138;2022-10-16T13:28:39;20.70;80.40
4223;DHT22;2125;51.436;14.138;2022-10-16T13:31:13;20.70;80.70
4223;DHT22;2125;51.436;14.138;2022-10-16T13:33:42;20.70;80.30
4223;DHT22;2125;51.436;14.138;2022-10-16T13:39:34;20.70;80.40
4223;DHT22;2125;51.436;14.138;2022-10-16T13:42:02;20.70;80.50
4223;DHT22;2125;51.436;14.138;2022-10-16T13:44:35;20.80;80.80
4223;DHT22;2125;51.436;14.138;2022-10-16T13:47:03;20.80;80.90
4223;DHT22;2125;51.436;14.138;2022-10-16T13:49:36;20.70;80.80
4223;DHT22;2125;51.436;14.138;2022-10-16T13:52:04;20.80;80.70
4223;DHT22;2125;51.436;14.138;2022-10-16T13:54:38;20.70;80.80
4223;DHT22;2125;51.436;14.138;2022-10-16T13:57:05;20.70;80.80
4223;DHT22;2125;51.436;14.138;2022-10-16T13:59:34;20.70;80.90
4223;DHT22;2125;51.436;14.138;2022-10-16T14:02:14;20.60;81.10
4223;DHT22;2125;51.436;14.138;2022-10-16T14:04:42;20.40;81.60
4223;DHT22;2125;51.436;14.138;2022-10-16T14:07:23;20.30;81.80
4223;DHT22;2125;51.436;14.138;2022-10-16T14:10:19;20.30;82.50
4223;DHT22;2125;51.436;14.138;2022-10-16T14:12:54;20.20;82.60
4223;DHT22;2125;51.436;14.138;2022-10-16T14:15:39;20.20;82.20
4223;DHT22;2125;51.436;14.138;2022-10-16T14:18:05;20.10;81.70
4223;DHT22;2125;51.436;14.138;2022-10-16T14:20:38;20.00;81.60
4223;DHT22;2125;51.436;14.138;2022-10-16T14:23:20;20.00;82.00
4223;DHT22;2125;51.436;14.138;2022-10-16T14:25:47;19.80;82.00
4223;DHT22;2125;51.436;14.138;2022-10-16T14:28:19;19.80;82.20
4223;DHT22;2125;51.436;14.138;2022-10-16T14:30:54;19.80;82.40
4223;DHT22;2125;51.436;14.138;2022-10-16T14:33:23;19.80;82.70
4223;DHT22;2125;51.436;14.138;2022-10-16T14:36:01;19.70;82.90
4223;DHT22;2125;51.436;14.138;2022-10-16T14:38:30;19.70;82.80
4223;DHT22;2125;51.436;14.138;2022-10-16T14:40:58;19.90;82.30
4223;DHT22;2125;51.436;14.138;2022-10-16T14:43:31;19.90;82.40
4223;DHT22;2125;51.436;14.138;2022-10-16T14:45:58;20.00;82.20
4223;DHT22;2125;51.436;14.138;2022-10-16T14:48:25;20.00;82.50
4223;DHT22;2125;51.436;14.138;2022-10-16T14:50:52;20.00;82.00
4223;DHT22;2125;51.436;14.138;2022-10-16T14:53:19;20.10;82.20
4223;DHT22;2125;51.436;14.138;2022-10-16T14:55:47;20.10;82.20
4223;DHT22;2125;51.436;14.138;2022-10-16T14:58:18;20.10;82.00
4223;DHT22;2125;51.436;14.138;2022-10-16T15:00:46;20.10;81.50
4223;DHT22;2125;51.436;14.138;2022-10-16T15:03:16;20.10;81.70
4223;DHT22;2125;51.436;14.138;2022-10-16T15:05:54;20.10;81.80
4223;DHT22;2125;51.436;14.138;2022-10-16T15:08:21;20.00;81.30
4223;DHT22;2125;51.436;14.138;2022-10-16T15:10:52;19.90;81.90
4223;DHT22;2125;51.436;14.138;2022-10-16T15:13:19;19.80;82.10
4223;DHT22;2125;51.436;14.138;2022-10-16T15:15:52;19.80;82.40
4223;DHT22;2125;51.436;14.138;2022-10-16T15:18:22;19.70;82.70
4223;DHT22;2125;51.436;14.138;2022-10-16T15:20:50;19.70;82.60
4223;DHT22;2125;51.436;14.138;2022-10-16T15:23:22;19.50;82.70
4223;DHT22;2125;51.436;14.138;2022-10-16T15:26:10;19.40;82.80
4223;DHT22;2125;51.436;14.138;2022-10-16T15:28:54;19.30;82.90
4223;DHT22;2125;51.436;14.138;2022-10-16T15:31:21;19.20;83.00
4223;DHT22;2125;51.436;14.138;2022-10-16T15:33:50;19.00;83.30
4223;DHT22;2125;51.436;14.138;2022-10-16T15:36:32;18.90;83.40
4223;DHT22;2125;51.436;14.138;2022-10-16T15:39:02;18.80;83.40
4223;DHT22;2125;51.436;14.138;2022-10-16T15:41:33;18.80;83.40
4223;DHT22;2125;51.436;14.138;2022-10-16T15:44:10;18.70;83.40
4223;DHT22;2125;51.436;14.138;2022-10-16T15:46:50;18.60;83.50
4223;DHT22;2125;51.436;14.138;2022-10-16T15:49:25;18.50;83.70
4223;DHT22;2125;51.436;14.138;2022-10-16T15:52:18;18.40;83.90
4223;DHT22;2125;51.436;14.138;2022-10-16T15:54:54;18.30;84.00
4223;DHT22;2125;51.436;14.138;2022-10-16T15:57:28;18.20;84.00
4223;DHT22;2125;51.436;14.138;2022-10-16T16:03:39;18.10;84.10
4223;DHT22;2125;51.436;14.138;2022-10-16T16:06:08;18.10;84.20
4223;DHT22;2125;51.436;14.138;2022-10-16T16:08:50;18.00;84.20
4223;DHT22;2125;51.436;14.138;2022-10-16T16:11:18;17.90;84.30
4223;DHT22;2125;51.436;14.138;2022-10-16T16:13:48;17.80;84.30
4223;DHT22;2125;51.436;14.138;2022-10-16T16:16:17;17.80;84.30
4223;DHT22;2125;51.436;14.138;2022-10-16T16:18:45;17.60;84.20
4223;DHT22;2125;51.436;14.138;2022-10-16T16:21:14;17.60;84.30
4223;DHT22;2125;51.436;14.138;2022-10-16T16:23:40;17.40;84.30
4223;DHT22;2125;51.436;14.138;2022-10-16T16:26:32;17.30;84.40
4223;DHT22;2125;51.436;14.138;2022-10-16T16:29:11;17.10;84.50
4223;DHT22;2125;51.436;14.138;2022-10-16T16:31:39;17.00;84.60
4223;DHT22;2125;51.436;14.138;2022-10-16T16:34:06;16.90;84.60
4223;DHT22;2125;51.436;14.138;2022-10-16T16:36:33;16.80;84.60
4223;DHT22;2125;51.436;14.138;2022-10-16T16:39:06;16.70;84.60
4223;DHT22;2125;51.436;14.138;2022-10-16T16:41:34;16.60;84.60